createdAt,value
2024-02-22T00:00:31.162Z,59.31
2024-02-22T00:03:19.411Z,60.37
2024-02-22T00:05:47.366Z,63.60
2024-02-22T00:08:15.397Z,65.75
2024-02-22T00:10:43.825Z,62.24
2024-02-22T00:13:12.237Z,61.13
2024-02-22T00:15:40.057Z,60.70
2024-02-22T00:18:08.043Z,59.95
2024-02-22T00:20:36.009Z,58.10
2024-02-22T00:23:07.112Z,57.42
2024-02-22T00:25:35.280Z,58.05
2024-02-22T00:28:03.445Z,58.92
2024-02-22T00:30:32.011Z,59.64
2024-02-22T00:32:59.900Z,60.42
2024-02-22T00:35:28.393Z,61.17
2024-02-22T00:37:56.315Z,61.84
2024-02-22T00:40:24.177Z,63.25
2024-02-22T00:42:52.072Z,65.84
2024-02-22T00:45:21.462Z,63.92
2024-02-22T00:47:49.499Z,62.72
2024-02-22T00:50:17.482Z,61.95
2024-02-22T00:52:45.479Z,60.58
2024-02-22T00:55:13.394Z,61.97
2024-02-22T00:57:41.501Z,60.70
2024-02-22T01:00:12.574Z,60.88
2024-02-22T01:02:40.538Z,59.12
2024-02-22T01:05:09.203Z,58.51
2024-02-22T01:07:37.401Z,59.60
2024-02-22T01:10:06.692Z,60.27
2024-02-22T01:12:34.905Z,60.73
2024-02-22T01:15:03.610Z,61.33
2024-02-22T01:17:31.551Z,62.68
2024-02-22T01:19:59.652Z,64.61
2024-02-22T01:22:27.858Z,65.90
2024-02-22T01:24:55.909Z,62.46
2024-02-22T01:27:23.750Z,61.72
2024-02-22T01:29:51.717Z,61.62
2024-02-22T01:32:19.641Z,63.74
2024-02-22T01:34:47.504Z,61.80
2024-02-22T01:37:16.027Z,59.62
2024-02-22T01:39:43.832Z,58.43
2024-02-22T01:42:11.675Z,58.64
2024-02-22T01:44:39.684Z,59.18
2024-02-22T01:47:08.109Z,59.89
2024-02-22T01:49:36.138Z,60.82
2024-02-22T01:52:06.145Z,61.54
2024-02-22T01:54:34.262Z,65.34
2024-02-22T01:57:02.390Z,64.85
2024-02-22T01:59:30.967Z,62.79
2024-02-22T02:02:00.928Z,61.53
2024-02-22T02:04:30.416Z,59.65
2024-02-22T02:06:58.672Z,58.59
2024-02-22T02:09:26.665Z,58.35
2024-02-22T02:11:54.608Z,58.72
2024-02-22T02:14:22.735Z,59.48
2024-02-22T02:16:50.787Z,60.43
2024-02-22T02:19:21.152Z,60.83
2024-02-22T02:21:55.033Z,61.28
2024-02-22T02:24:39.324Z,61.90
2024-02-22T02:27:07.239Z,65.57
2024-02-22T02:29:35.042Z,65.57
2024-02-22T02:32:03.212Z,62.28
2024-02-22T02:34:31.415Z,61.75
2024-02-22T02:36:59.340Z,62.48
2024-02-22T02:39:27.233Z,60.19
2024-02-22T02:41:55.289Z,58.37
2024-02-22T02:44:23.222Z,56.87
2024-02-22T02:46:51.377Z,57.53
2024-02-22T02:49:19.473Z,58.42
2024-02-22T02:51:48.669Z,59.12
2024-02-22T02:54:16.682Z,59.86
2024-02-22T02:56:44.534Z,60.45
2024-02-22T02:59:13.410Z,61.26
2024-02-22T03:01:48.289Z,61.70
2024-02-22T03:04:17.541Z,63.80
2024-02-22T03:06:46.810Z,65.71
2024-02-22T03:09:15.832Z,65.29
2024-02-22T03:11:44.837Z,61.07
2024-02-22T03:14:12.976Z,57.41
2024-02-22T03:16:41.138Z,55.90
2024-02-22T03:19:10.906Z,56.51
2024-02-22T03:21:39.073Z,57.09
2024-02-22T03:24:08.825Z,57.94
2024-02-22T03:26:37.678Z,58.66
2024-02-22T03:29:07.055Z,59.38
2024-02-22T03:31:35.170Z,59.71
2024-02-22T03:34:04.222Z,60.18
2024-02-22T03:36:32.366Z,60.59
2024-02-22T03:39:00.145Z,60.84
2024-02-22T03:41:28.480Z,61.35
2024-02-22T03:43:56.672Z,61.76
2024-02-22T03:46:24.523Z,64.65
2024-02-22T03:48:52.911Z,65.56
2024-02-22T03:51:20.870Z,63.04
2024-02-22T03:53:48.754Z,57.73
2024-02-22T03:56:17.841Z,56.04
2024-02-22T03:58:45.869Z,56.15
2024-02-22T04:01:14.802Z,57.07
2024-02-22T04:03:42.845Z,57.95
2024-02-22T04:06:11.364Z,58.63
2024-02-22T04:08:39.273Z,58.92
2024-02-22T04:11:07.254Z,59.45
2024-02-22T04:13:38.791Z,59.77
2024-02-22T04:16:07.220Z,60.08
2024-02-22T04:18:35.480Z,59.94
2024-02-22T04:21:04.158Z,60.20
2024-02-22T04:23:31.986Z,60.42
2024-02-22T04:25:59.889Z,60.20
2024-02-22T04:28:28.591Z,60.27
2024-02-22T04:30:56.418Z,60.21
2024-02-22T04:33:24.251Z,60.20
2024-02-22T04:35:52.292Z,60.41
2024-02-22T04:38:20.428Z,60.81
2024-02-22T04:40:48.274Z,60.74
2024-02-22T04:43:16.195Z,60.69
2024-02-22T04:45:44.391Z,60.35
2024-02-22T04:48:12.300Z,60.49
2024-02-22T04:50:40.245Z,60.34
2024-02-22T04:53:08.152Z,60.77
2024-02-22T04:55:36.270Z,60.78
2024-02-22T04:58:05.574Z,60.73
2024-02-22T05:00:35.943Z,60.69
2024-02-22T05:03:04.877Z,60.72
2024-02-22T05:05:33.187Z,61.55
2024-02-22T05:08:01.311Z,60.96
2024-02-22T05:10:29.372Z,60.66
2024-02-22T05:12:57.196Z,61.13
2024-02-22T05:15:25.004Z,60.50
2024-02-22T05:17:53.155Z,60.40
2024-02-22T05:20:21.057Z,60.21
2024-02-22T05:22:49.216Z,60.02
2024-02-22T05:25:17.095Z,59.48
2024-02-22T05:27:44.956Z,59.49
2024-02-22T05:30:14.408Z,60.06
2024-02-22T05:32:42.927Z,59.92
2024-02-22T05:35:10.973Z,59.09
2024-02-22T05:37:39.050Z,59.04
2024-02-22T05:40:10.603Z,59.03
2024-02-22T05:42:38.454Z,59.40
2024-02-22T05:45:07.960Z,59.66
2024-02-22T05:47:35.883Z,59.54
2024-02-22T05:50:04.672Z,59.56
2024-02-22T05:52:32.534Z,59.90
2024-02-22T05:55:00.428Z,59.94
2024-02-22T05:57:29.408Z,59.95
2024-02-22T05:59:57.310Z,60.27
2024-02-22T06:02:26.176Z,60.54
2024-02-22T06:04:54.363Z,60.53
2024-02-22T06:07:22.426Z,60.85
2024-02-22T06:09:51.443Z,60.71
2024-02-22T06:12:19.430Z,60.88
2024-02-22T06:14:47.291Z,60.96
2024-02-22T06:17:15.189Z,61.50
2024-02-22T06:19:43.191Z,61.20
2024-02-22T06:22:11.108Z,61.30
2024-02-22T06:24:39.933Z,61.00
2024-02-22T06:27:08.055Z,61.14
2024-02-22T06:29:36.280Z,61.42
2024-02-22T06:32:04.745Z,61.54
2024-02-22T06:34:32.744Z,61.63
2024-02-22T06:37:00.823Z,61.80
2024-02-22T06:39:29.216Z,61.86
2024-02-22T06:41:57.243Z,62.19
2024-02-22T06:44:25.127Z,63.61
2024-02-22T06:46:54.377Z,65.92
2024-02-22T06:49:22.650Z,64.96
2024-02-22T06:51:50.571Z,61.13
2024-02-22T06:54:18.497Z,57.97
2024-02-22T06:56:48.671Z,56.40
2024-02-22T06:59:18.432Z,56.81
2024-02-22T07:01:46.542Z,57.64
2024-02-22T07:04:15.098Z,58.27
2024-02-22T07:06:43.160Z,58.89
2024-02-22T07:09:12.833Z,59.34
2024-02-22T07:11:40.850Z,59.69
2024-02-22T07:14:09.193Z,59.96
2024-02-22T07:16:37.171Z,60.24
2024-02-22T07:19:05.238Z,60.80
2024-02-22T07:21:34.599Z,60.99
2024-02-22T07:24:04.446Z,61.36
2024-02-22T07:26:32.667Z,63.44
2024-02-22T07:29:01.002Z,64.20
2024-02-22T07:31:29.121Z,63.11
2024-02-22T07:33:57.090Z,62.75
2024-02-22T07:36:26.325Z,63.98
2024-02-22T07:38:54.213Z,63.24
2024-02-22T07:41:22.824Z,62.12
2024-02-22T07:43:51.245Z,59.46
2024-02-22T07:46:19.376Z,58.25
2024-02-22T07:48:47.552Z,58.35
2024-02-22T07:51:15.429Z,59.29
2024-02-22T07:53:44.183Z,60.39
2024-02-22T07:56:12.696Z,60.97
2024-02-22T07:58:48.324Z,61.79
2024-02-22T08:01:17.054Z,62.92
2024-02-22T08:03:45.700Z,64.61
2024-02-22T08:06:14.146Z,63.62
2024-02-22T08:08:42.073Z,63.40
2024-02-22T08:11:11.646Z,60.22
2024-02-22T08:13:39.947Z,56.62
2024-02-22T08:16:09.525Z,55.78
2024-02-22T08:18:38.962Z,56.73
2024-02-22T08:21:08.129Z,57.87
2024-02-22T08:23:36.421Z,58.92
2024-02-22T08:26:04.452Z,59.16
2024-02-22T08:28:33.915Z,60.15
2024-02-22T08:31:01.964Z,61.07
2024-02-22T08:33:31.031Z,62.00
2024-02-22T08:35:59.145Z,63.43
2024-02-22T08:38:27.311Z,63.99
2024-02-22T08:40:55.466Z,63.42
2024-02-22T08:43:23.490Z,63.52
2024-02-22T08:45:52.718Z,65.48
2024-02-22T08:48:20.701Z,63.55
2024-02-22T08:50:48.760Z,62.12
2024-02-22T08:53:16.681Z,60.59
2024-02-22T08:55:44.935Z,59.72
2024-02-22T08:58:12.918Z,61.50
2024-02-22T09:00:40.862Z,60.41
2024-02-22T09:03:10.842Z,57.11
2024-02-22T09:05:38.919Z,55.95
2024-02-22T09:08:08.397Z,57.28
2024-02-22T09:10:36.676Z,58.38
2024-02-22T09:13:04.985Z,59.98
2024-02-22T09:15:32.858Z,61.12
2024-02-22T09:18:01.073Z,62.12
2024-02-22T09:20:29.126Z,63.39
2024-02-22T09:22:57.490Z,63.60
2024-02-22T09:25:25.725Z,63.99
2024-02-22T09:27:53.544Z,64.38
2024-02-22T09:30:21.939Z,64.61
2024-02-22T09:32:52.341Z,64.89
2024-02-22T09:35:20.290Z,64.86
2024-02-22T09:37:48.756Z,64.95
2024-02-22T09:40:16.959Z,65.24
2024-02-22T09:42:45.196Z,65.36
2024-02-22T09:45:13.027Z,65.50
2024-02-22T09:47:40.984Z,65.76
2024-02-22T09:50:12.790Z,65.98
2024-02-22T09:52:41.029Z,66.04
2024-02-22T09:55:10.531Z,65.93
2024-02-22T09:57:38.384Z,66.28
2024-02-22T10:00:08.008Z,66.78
2024-02-22T10:02:45.863Z,67.41
2024-02-22T10:05:14.205Z,67.27
2024-02-22T10:07:42.278Z,67.39
2024-02-22T10:10:10.390Z,67.44
2024-02-22T10:12:45.685Z,68.17
2024-02-22T10:15:28.565Z,67.90
2024-02-22T10:17:57.084Z,68.18
2024-02-22T10:20:32.401Z,68.11
2024-02-22T10:23:08.454Z,68.33
2024-02-22T10:25:38.427Z,68.26
2024-02-22T10:28:07.081Z,68.24
2024-02-22T10:30:34.899Z,68.34
2024-02-22T10:33:03.841Z,68.48
2024-02-22T10:35:36.163Z,68.73
2024-02-22T10:38:05.872Z,69.15
2024-02-22T10:40:34.885Z,68.89
2024-02-22T10:43:05.626Z,68.71
2024-02-22T10:45:35.171Z,68.74
2024-02-22T10:48:09.825Z,68.76
2024-02-22T10:50:38.580Z,68.59
2024-02-22T10:53:14.154Z,68.45
2024-02-22T10:55:52.687Z,68.65
2024-02-22T10:58:25.186Z,68.38
2024-02-22T11:00:56.380Z,68.29
2024-02-22T11:03:26.716Z,68.23
2024-02-22T11:05:54.829Z,68.19
2024-02-22T11:08:23.046Z,67.88
2024-02-22T11:11:11.715Z,67.95
2024-02-22T11:13:40.108Z,67.75
2024-02-22T11:16:17.274Z,67.57
2024-02-22T11:18:47.713Z,67.25
2024-02-22T11:21:16.178Z,67.34
2024-02-22T11:23:44.684Z,67.49
2024-02-22T11:26:12.632Z,67.25
2024-02-22T11:28:40.638Z,67.15
2024-02-22T11:31:12.608Z,67.19
2024-02-22T11:33:41.920Z,67.18
2024-02-22T11:36:10.355Z,67.36
2024-02-22T11:38:38.246Z,67.37
2024-02-22T11:41:06.938Z,67.40
2024-02-22T11:43:36.627Z,67.19
2024-02-22T11:46:06.624Z,67.18
2024-02-22T11:48:35.155Z,67.09
2024-02-22T11:51:04.865Z,67.21
2024-02-22T11:53:32.740Z,67.12
2024-02-22T11:56:00.720Z,67.11
2024-02-22T11:58:28.774Z,67.15
2024-02-22T12:00:56.889Z,66.78
2024-02-22T12:03:24.761Z,66.88
2024-02-22T12:05:52.858Z,66.63
2024-02-22T12:08:21.329Z,66.05
2024-02-22T12:10:49.568Z,65.91
2024-02-22T12:13:17.636Z,65.52
2024-02-22T12:15:46.050Z,67.28
2024-02-22T12:18:16.060Z,65.68
2024-02-22T12:20:44.807Z,61.84
2024-02-22T12:23:12.777Z,59.16
2024-02-22T12:25:51.503Z,57.28
2024-02-22T12:28:20.501Z,58.30
2024-02-22T12:30:48.310Z,59.02
2024-02-22T12:33:23.784Z,59.24
2024-02-22T12:35:52.009Z,60.43
2024-02-22T12:38:20.032Z,61.46
2024-02-22T12:40:48.139Z,61.36
2024-02-22T12:43:22.988Z,61.41
2024-02-22T12:45:51.668Z,62.80
2024-02-22T12:48:19.818Z,61.82
2024-02-22T12:50:47.756Z,57.88
2024-02-22T12:53:15.699Z,56.00
2024-02-22T12:55:44.726Z,56.56
2024-02-22T12:58:12.633Z,57.55
2024-02-22T13:00:40.494Z,58.59
2024-02-22T13:03:08.689Z,59.30
2024-02-22T13:05:37.029Z,59.69
2024-02-22T13:08:11.079Z,59.99
2024-02-22T13:10:43.668Z,60.63
2024-02-22T13:13:11.862Z,60.91
2024-02-22T13:15:39.721Z,61.21
2024-02-22T13:18:08.048Z,61.66
2024-02-22T13:20:38.032Z,61.81
2024-02-22T13:23:07.319Z,61.98
2024-02-22T13:25:36.114Z,62.36
2024-02-22T13:28:04.670Z,62.53
2024-02-22T13:30:32.864Z,63.26
2024-02-22T13:33:00.986Z,60.76
2024-02-22T13:35:29.393Z,56.58
2024-02-22T13:38:29.709Z,56.17
2024-02-22T13:41:11.286Z,56.61
2024-02-22T13:43:41.382Z,58.04
2024-02-22T13:46:09.489Z,59.03
2024-02-22T13:48:38.717Z,59.64
2024-02-22T13:51:07.114Z,59.70
2024-02-22T13:53:34.951Z,60.11
2024-02-22T13:56:03.009Z,60.67
2024-02-22T13:58:35.822Z,61.05
2024-02-22T14:01:05.490Z,61.62
2024-02-22T14:03:34.478Z,61.66
2024-02-22T14:06:04.783Z,62.02
2024-02-22T14:08:32.975Z,62.29
2024-02-22T14:11:03.741Z,64.40
2024-02-22T14:13:36.706Z,63.21
2024-02-22T14:16:05.996Z,56.89
2024-02-22T14:18:36.389Z,54.95
2024-02-22T14:21:05.946Z,55.97
2024-02-22T14:23:33.818Z,56.51
2024-02-22T14:26:01.847Z,58.47
2024-02-22T14:28:29.824Z,59.18
2024-02-22T14:30:57.639Z,60.25
2024-02-22T14:33:25.999Z,60.42
2024-02-22T14:35:54.261Z,60.81
2024-02-22T14:38:25.103Z,61.20
2024-02-22T14:40:53.074Z,63.77
2024-02-22T14:43:20.918Z,64.99
2024-02-22T14:45:51.623Z,61.67
2024-02-22T14:48:19.845Z,58.01
2024-02-22T14:50:48.340Z,56.73
2024-02-22T14:53:16.361Z,57.34
2024-02-22T14:55:46.178Z,58.02
2024-02-22T14:58:14.282Z,59.22
2024-02-22T15:00:43.972Z,59.18
2024-02-22T15:03:11.898Z,60.09
2024-02-22T15:05:39.908Z,60.83
2024-02-22T15:08:07.968Z,61.41
2024-02-22T15:10:35.885Z,61.63
2024-02-22T15:13:04.039Z,61.75
2024-02-22T15:15:31.900Z,63.66
2024-02-22T15:17:59.756Z,64.71
2024-02-22T15:20:27.918Z,61.37
2024-02-22T15:22:55.957Z,58.92
2024-02-22T15:25:23.854Z,56.91
2024-02-22T15:27:51.705Z,57.50
2024-02-22T15:30:19.888Z,58.26
2024-02-22T15:32:47.876Z,59.41
2024-02-22T15:35:15.902Z,60.99
2024-02-22T15:37:43.883Z,60.86
2024-02-22T15:40:13.383Z,61.14
2024-02-22T15:42:41.362Z,61.46
2024-02-22T15:45:09.621Z,63.44
2024-02-22T15:47:37.646Z,64.04
2024-02-22T15:50:07.378Z,62.18
2024-02-22T15:52:35.588Z,57.15
2024-02-22T15:55:03.992Z,56.15
2024-02-22T15:57:31.825Z,57.21
2024-02-22T16:00:03.929Z,57.99
2024-02-22T16:02:38.408Z,59.13
2024-02-22T16:05:07.591Z,59.60
2024-02-22T16:07:35.518Z,60.21
2024-02-22T16:10:05.953Z,60.45
2024-02-22T16:12:33.836Z,61.34
2024-02-22T16:15:06.178Z,63.77
2024-02-22T16:17:37.712Z,65.53
2024-02-22T16:20:06.619Z,61.79
2024-02-22T16:22:34.615Z,56.38
2024-02-22T16:25:02.529Z,54.61
2024-02-22T16:27:30.691Z,55.11
2024-02-22T16:29:58.634Z,55.90
2024-02-22T16:32:26.598Z,56.83
2024-02-22T16:34:54.617Z,57.55
2024-02-22T16:37:22.840Z,58.30
2024-02-22T16:39:50.654Z,59.41
2024-02-22T16:42:18.667Z,60.29
2024-02-22T16:44:47.136Z,60.70
2024-02-22T16:47:19.282Z,60.86
2024-02-22T16:49:47.230Z,60.92
2024-02-22T16:52:15.510Z,60.46
2024-02-22T16:54:43.811Z,61.58
2024-02-22T16:57:12.084Z,65.02
2024-02-22T16:59:40.084Z,65.50
2024-02-22T17:02:08.090Z,62.50
2024-02-22T17:04:44.400Z,59.09
2024-02-22T17:07:12.241Z,57.34
2024-02-22T17:09:40.403Z,57.18
2024-02-22T17:12:08.481Z,57.97
2024-02-22T17:14:39.291Z,58.56
2024-02-22T17:17:07.465Z,59.18
2024-02-22T17:19:37.982Z,59.80
2024-02-22T17:22:05.837Z,60.33
2024-02-22T17:24:33.685Z,60.80
2024-02-22T17:27:01.491Z,61.17
2024-02-22T17:29:29.480Z,63.62
2024-02-22T17:31:57.363Z,64.68
2024-02-22T17:34:26.387Z,63.35
2024-02-22T17:36:54.711Z,62.83
2024-02-22T17:39:22.830Z,60.71
2024-02-22T17:41:51.195Z,56.36
2024-02-22T17:44:19.216Z,54.98
2024-02-22T17:46:47.269Z,55.52
2024-02-22T17:49:15.297Z,56.43
2024-02-22T17:51:50.353Z,56.95
2024-02-22T17:54:22.551Z,57.75
2024-02-22T17:56:50.478Z,58.80
2024-02-22T17:59:18.403Z,59.06
2024-02-22T18:01:46.338Z,59.61
2024-02-22T18:04:14.733Z,60.23
2024-02-22T18:06:42.682Z,60.72
2024-02-22T18:09:10.715Z,61.12
2024-02-22T18:11:39.439Z,61.66
2024-02-22T18:14:08.530Z,62.65
2024-02-22T18:16:36.763Z,63.35
2024-02-22T18:19:04.767Z,63.08
2024-02-22T18:21:32.735Z,63.12
2024-02-22T18:24:00.595Z,63.09
2024-02-22T18:26:28.458Z,62.88
2024-02-22T18:28:57.098Z,63.04
2024-02-22T18:31:25.172Z,63.46
2024-02-22T18:33:53.068Z,63.56
2024-02-22T18:36:21.072Z,63.48
2024-02-22T18:38:48.938Z,63.53
2024-02-22T18:41:18.288Z,63.65
2024-02-22T18:43:46.404Z,63.76
2024-02-22T18:46:14.652Z,63.69
2024-02-22T18:48:42.584Z,63.65
2024-02-22T18:51:11.156Z,63.63
2024-02-22T18:53:39.233Z,63.69
2024-02-22T18:56:07.326Z,63.83
2024-02-22T18:58:35.195Z,63.95
2024-02-22T19:01:03.738Z,63.83
2024-02-22T19:03:31.916Z,63.85
2024-02-22T19:06:00.330Z,63.95
2024-02-22T19:08:28.257Z,63.98
2024-02-22T19:10:56.276Z,64.06
2024-02-22T19:13:26.640Z,64.12
2024-02-22T19:15:54.834Z,64.25
2024-02-22T19:18:22.840Z,64.14
2024-02-22T19:20:52.264Z,64.28
2024-02-22T19:23:20.746Z,64.44
2024-02-22T19:25:49.287Z,64.31
2024-02-22T19:31:19.093Z,64.54
2024-02-22T19:33:48.762Z,64.78
2024-02-22T19:36:18.131Z,64.76
2024-02-22T19:38:47.758Z,64.70
2024-02-22T19:41:15.873Z,64.71
2024-02-22T19:43:44.037Z,64.73
2024-02-22T19:46:12.001Z,64.89
2024-02-22T19:48:40.133Z,64.95
2024-02-22T19:51:08.653Z,65.07
2024-02-22T19:53:36.542Z,65.20
2024-02-22T19:56:06.729Z,65.23
2024-02-22T19:58:34.662Z,65.33
2024-02-22T20:01:02.523Z,65.30
2024-02-22T20:03:30.482Z,65.22
2024-02-22T20:05:58.390Z,65.11
2024-02-22T20:08:27.502Z,65.14
2024-02-22T20:10:58.531Z,65.04
2024-02-22T20:13:32.335Z,65.01
2024-02-22T20:16:00.385Z,65.09
2024-02-22T20:18:28.697Z,65.02
2024-02-22T20:21:00.629Z,65.01
2024-02-22T20:23:29.351Z,65.02
2024-02-22T20:25:57.425Z,65.05
2024-02-22T20:28:26.332Z,64.93
2024-02-22T20:30:54.164Z,64.84
2024-02-22T20:33:22.203Z,65.19
2024-02-22T20:35:50.723Z,65.17
2024-02-22T20:38:19.005Z,64.74
2024-02-22T20:40:47.063Z,64.56
2024-02-22T20:43:16.329Z,64.53
2024-02-22T20:45:44.945Z,64.43
2024-02-22T20:48:13.954Z,64.55
2024-02-22T20:50:42.904Z,64.74
2024-02-22T20:53:10.960Z,64.78
2024-02-22T20:55:38.839Z,64.81
2024-02-22T20:58:06.725Z,64.95
2024-02-22T21:00:34.550Z,64.92
2024-02-22T21:03:02.482Z,65.24
2024-02-22T21:05:35.353Z,65.21
2024-02-22T21:08:05.300Z,65.49
2024-02-22T21:10:33.622Z,65.64
2024-02-22T21:13:02.890Z,65.69
2024-02-22T21:15:32.118Z,66.02
2024-02-22T21:18:00.360Z,65.92
2024-02-22T21:20:28.315Z,66.23
2024-02-22T21:22:56.294Z,66.29
2024-02-22T21:25:25.251Z,66.40
2024-02-22T21:27:53.163Z,66.31
2024-02-22T21:30:21.007Z,66.58
2024-02-22T21:32:49.007Z,66.85
2024-02-22T21:35:16.897Z,67.43
2024-02-22T21:37:45.030Z,67.41
2024-02-22T21:40:14.406Z,70.35
2024-02-22T21:42:42.259Z,70.86
2024-02-22T21:45:11.173Z,67.34
2024-02-22T21:47:39.125Z,64.78
2024-02-22T21:50:09.625Z,62.15
2024-02-22T21:52:38.161Z,60.13
2024-02-22T21:55:07.148Z,57.75
2024-02-22T21:57:35.878Z,57.17
2024-02-22T22:00:04.631Z,57.67
2024-02-22T22:02:37.967Z,59.05
2024-02-22T22:05:07.849Z,60.03
2024-02-22T22:07:36.341Z,61.22
2024-02-22T22:10:04.787Z,64.83
2024-02-22T22:12:33.090Z,65.32
2024-02-22T22:15:01.452Z,64.22
2024-02-22T22:17:29.391Z,63.09
2024-02-22T22:19:57.492Z,61.25
2024-02-22T22:22:25.398Z,60.24
2024-02-22T22:24:53.196Z,57.60
2024-02-22T22:27:21.171Z,57.18
2024-02-22T22:29:49.087Z,58.44
2024-02-22T22:32:16.941Z,59.54
2024-02-22T22:34:44.915Z,60.66
2024-02-22T22:37:12.905Z,61.19
2024-02-22T22:39:41.388Z,64.79
2024-02-22T22:42:09.296Z,66.33
2024-02-22T22:44:39.879Z,62.93
2024-02-22T22:47:07.814Z,60.43
2024-02-22T22:49:35.900Z,57.45
2024-02-22T22:52:04.379Z,56.63
2024-02-22T22:54:32.219Z,58.29
2024-02-22T22:57:00.602Z,59.61
2024-02-22T22:59:28.549Z,60.47
2024-02-22T23:01:57.891Z,62.62
2024-02-22T23:04:26.301Z,64.47
2024-02-22T23:06:54.225Z,64.68
2024-02-22T23:09:26.297Z,62.33
2024-02-22T23:11:54.707Z,63.40
2024-02-22T23:14:22.714Z,61.22
2024-02-22T23:16:50.779Z,60.34
2024-02-22T23:19:18.719Z,59.30
2024-02-22T23:21:46.724Z,57.85
2024-02-22T23:24:14.672Z,58.98
2024-02-22T23:26:42.566Z,59.90
2024-02-22T23:29:10.462Z,61.06
2024-02-22T23:31:40.242Z,63.56
2024-02-22T23:34:09.004Z,65.17
2024-02-22T23:36:37.582Z,65.81
2024-02-22T23:39:05.698Z,63.52
2024-02-22T23:41:33.572Z,63.77
2024-02-22T23:44:01.922Z,63.89
2024-02-22T23:46:30.172Z,62.64
2024-02-22T23:48:58.137Z,61.69
2024-02-22T23:51:26.056Z,60.73
2024-02-22T23:53:53.936Z,60.52
2024-02-22T23:56:21.903Z,60.11
2024-02-22T23:58:49.864Z,58.23
